Time;durP1;ratioP1;P1;durP2;ratioP2;P2;SDS_P1;SDS_P2;PMS_P1;PMS_P2;Temp;Humidity;BMP_temperature;BMP_pressure;BME280_temperature;BME280_humidity;BME280_pressure;Samples;Min_cycle;Max_cycle;Signal;HPM_P1;HPM_P2
2021/05/06 00:05:13;;;;;;;;;;;5.80;99.90;;;;;;8325476;28;19917;-65
2021/05/06 00:31:21;;;;;;;;;;;6.10;99.90;;;;;;8327259;28;19956;-67
2021/05/06 00:35:19;;;;;;;;;;;6.20;99.90;;;;;;8357804;28;19929;-65
2021/05/06 00:39:23;;;;;;;;;;;6.40;99.90;;;;;;8358296;28;19909;-66
2021/05/06 00:43:57;;;;;;;;;;;6.40;99.90;;;;;;8357951;28;19967;-65
2021/05/06 00:56:51;;;;;;;;;;;6.50;99.90;;;;;;8364726;28;19919;-65
2021/05/06 01:09:10;;;;;;;;;;;6.50;99.90;;;;;;8357400;28;19923;-65
2021/05/06 01:13:15;;;;;;;;;;;6.50;99.90;;;;;;8329178;28;19910;-65
2021/05/06 01:17:16;;;;;;;;;;;6.40;99.90;;;;;;8330748;28;19909;-65
2021/05/06 01:21:16;;;;;;;;;;;6.50;99.90;;;;;;8330505;28;19909;-65
2021/05/06 01:25:17;;;;;;;;;;;6.40;99.90;;;;;;8330245;28;19913;-65
2021/05/06 01:29:29;;;;;;;;;;;6.40;99.90;;;;;;8330467;28;19913;-65
2021/05/06 01:33:39;;;;;;;;;;;6.40;99.90;;;;;;8353920;28;19956;-67
2021/05/06 01:37:57;;;;;;;;;;;6.50;99.90;;;;;;8362335;28;20029;-65
2021/05/06 01:42:06;;;;;;;;;;;6.50;99.90;;;;;;8362967;28;19917;-65
2021/05/06 01:59:38;;;;;;;;;;;6.60;99.90;;;;;;8363047;28;19920;-65
2021/05/06 02:03:14;;;;;;;;;;;6.60;99.90;;;;;;8357915;28;19959;-65
2021/05/06 02:07:15;;;;;;;;;;;6.50;99.90;;;;;;8361608;28;19948;-65
2021/05/06 02:11:16;;;;;;;;;;;6.40;99.90;;;;;;8361114;28;19916;-65
2021/05/06 02:15:26;;;;;;;;;;;6.40;99.90;;;;;;8360174;28;19916;-65
2021/05/06 02:19:31;;;;;;;;;;;6.40;99.90;;;;;;8360754;28;19909;-65
2021/05/06 02:23:33;;;;;;;;;;;6.50;99.90;;;;;;8361799;28;20389;-65
2021/05/06 02:27:34;;;;;;;;;;;6.40;99.90;;;;;;8361707;28;20003;-65
2021/05/06 02:31:34;;;;;;;;;;;6.50;99.90;;;;;;8361353;28;20522;-65
2021/05/06 02:35:36;;;;;;;;;;;6.50;99.90;;;;;;8360884;28;19998;-65
2021/05/06 02:39:36;;;;;;;;;;;6.40;99.90;;;;;;8360648;28;19923;-66
2021/05/06 02:43:36;;;;;;;;;;;6.40;99.90;;;;;;8360576;28;19924;-66
2021/05/06 02:47:37;;;;;;;;;;;6.50;99.90;;;;;;8360688;28;19932;-65
2021/05/06 02:51:44;;;;;;;;;;;6.50;99.90;;;;;;8359388;28;19909;-65
2021/05/06 03:04:24;;;;;;;;;;;6.60;99.90;;;;;;8360380;28;20039;-65
2021/05/06 03:08:31;;;;;;;;;;;6.60;99.90;;;;;;8375364;28;19913;-65
2021/05/06 03:21:34;;;;;;;;;;;6.40;99.90;;;;;;8359659;28;19915;-66
2021/05/06 03:25:31;;;;;;;;;;;6.40;99.90;;;;;;8359377;28;20387;-66
2021/05/06 03:29:40;;;;;;;;;;;6.40;99.90;;;;;;8358043;28;20365;-66
2021/05/06 03:42:31;;;;;;;;;;;6.30;99.90;;;;;;8357553;28;20054;-65
2021/05/06 03:46:51;;;;;;;;;;;6.40;99.90;;;;;;8356119;28;19913;-65
2021/05/06 04:29:48;;;;;;;;;;;6.70;99.90;;;;;;8334877;28;20290;-65
2021/05/06 04:37:50;;;;;;;;;;;7.10;99.90;;;;;;8364736;28;19916;-65
2021/05/06 04:42:06;;;;;;;;;;;7.10;99.90;;;;;;8364319;28;20727;-66
2021/05/06 05:15:07;;;;;;;;;;;7.50;99.90;;;;;;8331076;28;20442;-67
2021/05/06 05:23:37;;;;;;;;;;;7.80;99.90;;;;;;8339053;28;19919;-67
2021/05/06 05:27:38;;;;;;;;;;;7.80;99.90;;;;;;8363453;28;20437;-63
2021/05/06 05:31:38;;;;;;;;;;;8.00;99.90;;;;;;8348423;28;19913;-64
2021/05/06 05:35:41;;;;;;;;;;;8.00;99.90;;;;;;8362175;28;19909;-64
2021/05/06 05:56:55;;;;;;;;;;;8.00;99.90;;;;;;8352719;28;19936;-63
2021/05/06 06:00:56;;;;;;;;;;;7.90;99.90;;;;;;8331483;28;19913;-63
2021/05/06 06:04:56;;;;;;;;;;;8.00;99.90;;;;;;8361756;28;19975;-64
2021/05/06 06:08:57;;;;;;;;;;;8.20;99.90;;;;;;8358034;28;20291;-63
2021/05/06 06:12:58;;;;;;;;;;;8.30;99.90;;;;;;8361889;28;20294;-63
2021/05/06 06:16:58;;;;;;;;;;;8.30;99.90;;;;;;8362038;28;19916;-64
2021/05/06 06:21:09;;;;;;;;;;;8.30;99.90;;;;;;8361874;28;19908;-63
2021/05/06 06:25:10;;;;;;;;;;;8.40;99.90;;;;;;8350751;28;19917;-63
2021/05/06 06:29:17;;;;;;;;;;;8.60;99.90;;;;;;8350556;28;19970;-63
2021/05/06 06:33:18;;;;;;;;;;;8.70;99.90;;;;;;8360975;28;19908;-64
2021/05/06 06:37:18;;;;;;;;;;;8.60;99.90;;;;;;8359428;28;19932;-64
2021/05/06 06:41:19;;;;;;;;;;;8.70;99.90;;;;;;8341783;28;19916;-64
2021/05/06 06:45:20;;;;;;;;;;;8.70;99.90;;;;;;8334220;28;19920;-63
2021/05/06 06:49:21;;;;;;;;;;;8.80;99.90;;;;;;8353973;28;20442;-63
2021/05/06 06:53:21;;;;;;;;;;;9.20;99.90;;;;;;8352932;28;19920;-63
2021/05/06 06:57:22;;;;;;;;;;;9.40;99.90;;;;;;8345095;28;20027;-64
2021/05/06 07:01:22;;;;;;;;;;;9.60;99.90;;;;;;8344808;28;19912;-63
2021/05/06 07:05:23;;;;;;;;;;;9.80;99.90;;;;;;8342764;28;19943;-64
2021/05/06 07:09:24;;;;;;;;;;;10.10;99.90;;;;;;8345867;28;19924;-63
2021/05/06 07:13:25;;;;;;;;;;;10.60;99.90;;;;;;8359648;28;19909;-63
2021/05/06 07:17:25;;;;;;;;;;;10.80;99.90;;;;;;8352466;28;20603;-64
2021/05/06 07:21:26;;;;;;;;;;;11.20;99.90;;;;;;8350279;28;20002;-63
2021/05/06 07:25:26;;;;;;;;;;;11.30;99.90;;;;;;8330181;28;20024;-63
2021/05/06 07:29:27;;;;;;;;;;;10.90;99.90;;;;;;8325129;28;20368;-62
2021/05/06 07:33:28;;;;;;;;;;;10.80;99.90;;;;;;8349255;28;19919;-63
2021/05/06 07:37:29;;;;;;;;;;;10.90;99.90;;;;;;8356283;28;19940;-61
2021/05/06 07:41:29;;;;;;;;;;;10.60;99.90;;;;;;8357538;28;19952;-63
2021/05/06 07:45:30;;;;;;;;;;;10.70;99.90;;;;;;8349184;28;19960;-63
2021/05/06 07:49:31;;;;;;;;;;;11.00;99.90;;;;;;8353713;28;19927;-64
2021/05/06 07:58:02;;;;;;;;;;;12.20;99.90;;;;;;8323898;28;19970;-63
2021/05/06 08:02:03;;;;;;;;;;;12.20;99.90;;;;;;8343396;28;19913;-62
2021/05/06 08:06:04;;;;;;;;;;;11.90;99.90;;;;;;8363546;28;19917;-63
2021/05/06 08:10:06;;;;;;;;;;;12.10;99.90;;;;;;8364049;28;20445;-64
2021/05/06 08:14:06;;;;;;;;;;;12.30;99.90;;;;;;8350502;28;20008;-63
2021/05/06 08:18:07;;;;;;;;;;;12.50;99.00;;;;;;8348137;28;19924;-64
2021/05/06 08:22:07;;;;;;;;;;;12.10;99.90;;;;;;8355059;28;19920;-63
2021/05/06 08:26:08;;;;;;;;;;;12.20;99.00;;;;;;8355523;28;19920;-63
2021/05/06 08:30:13;;;;;;;;;;;11.80;98.90;;;;;;8363044;28;19920;-66
2021/05/06 08:34:14;;;;;;;;;;;12.10;99.90;;;;;;8356318;28;20291;-66
2021/05/06 08:38:14;;;;;;;;;;;12.40;98.70;;;;;;8354870;28;19948;-66
2021/05/06 08:42:16;;;;;;;;;;;12.50;97.60;;;;;;8348194;28;19930;-66
2021/05/06 08:46:16;;;;;;;;;;;12.50;98.00;;;;;;8352133;28;19917;-64
2021/05/06 08:50:17;;;;;;;;;;;12.40;96.10;;;;;;8342368;28;19987;-63
2021/05/06 08:54:18;;;;;;;;;;;12.60;97.50;;;;;;8354790;28;19913;-64
2021/05/06 08:58:20;;;;;;;;;;;12.80;96.80;;;;;;8357890;28;19924;-64
2021/05/06 09:02:21;;;;;;;;;;;12.40;96.90;;;;;;8362290;28;19909;-62
2021/05/06 09:06:23;;;;;;;;;;;12.20;97.60;;;;;;8363695;28;19913;-63
2021/05/06 09:10:36;;;;;;;;;;;12.40;98.90;;;;;;8359301;28;20458;-63
2021/05/06 09:14:44;;;;;;;;;;;12.10;98.90;;;;;;8351087;28;19916;-64
2021/05/06 09:18:45;;;;;;;;;;;11.90;98.70;;;;;;8355870;28;19913;-64
2021/05/06 09:22:47;;;;;;;;;;;11.90;99.80;;;;;;8356727;28;19908;-64
2021/05/06 09:26:51;;;;;;;;;;;12.00;98.40;;;;;;8362327;28;19916;-64
2021/05/06 09:31:04;;;;;;;;;;;12.10;98.60;;;;;;8357362;28;19917;-64
2021/05/06 09:35:04;;;;;;;;;;;11.90;97.80;;;;;;8359916;28;19912;-64
2021/05/06 09:39:08;;;;;;;;;;;11.80;99.10;;;;;;8352396;28;19945;-64
2021/05/06 09:43:20;;;;;;;;;;;11.70;99.60;;;;;;8357961;28;19924;-64
2021/05/06 09:47:21;;;;;;;;;;;11.60;99.90;;;;;;8376814;28;19960;-64
2021/05/06 09:51:28;;;;;;;;;;;11.60;99.90;;;;;;8350140;28;19920;-63
2021/05/06 09:55:33;;;;;;;;;;;11.30;99.90;;;;;;8344361;28;19939;-63
2021/05/06 09:59:39;;;;;;;;;;;11.20;99.90;;;;;;8336918;28;20382;-63
2021/05/06 10:03:39;;;;;;;;;;;11.00;99.90;;;;;;8355940;28;19917;-64
2021/05/06 10:07:52;;;;;;;;;;;10.90;99.90;;;;;;8361080;28;19923;-64
2021/05/06 10:11:52;;;;;;;;;;;10.50;99.90;;;;;;8360711;28;20440;-64
2021/05/06 10:15:53;;;;;;;;;;;10.30;99.90;;;;;;8349206;28;19913;-64
2021/05/06 10:19:53;;;;;;;;;;;10.20;99.90;;;;;;8333303;28;19952;-64
2021/05/06 10:23:54;;;;;;;;;;;10.20;99.90;;;;;;8325504;28;19916;-64
2021/05/06 10:27:56;;;;;;;;;;;10.30;99.90;;;;;;8335946;28;19923;-64
2021/05/06 10:31:57;;;;;;;;;;;10.20;99.90;;;;;;8342418;28;20331;-64
2021/05/06 10:35:58;;;;;;;;;;;10.30;99.90;;;;;;8342094;28;19921;-64
2021/05/06 10:39:59;;;;;;;;;;;10.10;99.90;;;;;;8348910;28;19908;-64
2021/05/06 10:44:01;;;;;;;;;;;9.90;99.90;;;;;;8339144;28;19917;-64
2021/05/06 10:48:02;;;;;;;;;;;9.80;99.90;;;;;;8344984;28;20430;-63
2021/05/06 10:52:06;;;;;;;;;;;9.70;99.90;;;;;;8344299;28;19909;-64
2021/05/06 10:56:16;;;;;;;;;;;9.50;99.90;;;;;;8353690;28;19916;-65
2021/05/06 11:00:20;;;;;;;;;;;9.50;99.90;;;;;;8355850;28;19908;-64
2021/05/06 11:04:34;;;;;;;;;;;9.80;99.90;;;;;;8356638;28;19919;-64
2021/05/06 11:08:35;;;;;;;;;;;9.80;99.90;;;;;;8356514;28;19927;-63
2021/05/06 11:12:36;;;;;;;;;;;9.70;99.90;;;;;;8353086;28;20526;-64
2021/05/06 11:16:42;;;;;;;;;;;9.50;99.90;;;;;;8357137;28;22490;-63
2021/05/06 11:20:44;;;;;;;;;;;9.30;99.90;;;;;;8359068;28;19915;-64
2021/05/06 11:24:44;;;;;;;;;;;9.30;99.90;;;;;;8357277;28;19913;-65
2021/05/06 11:28:45;;;;;;;;;;;9.40;99.90;;;;;;8357784;28;19924;-64
2021/05/06 11:32:50;;;;;;;;;;;9.40;99.90;;;;;;8351861;28;20004;-64
2021/05/06 11:36:50;;;;;;;;;;;9.40;99.90;;;;;;8354567;28;19913;-64
2021/05/06 11:40:57;;;;;;;;;;;9.70;99.90;;;;;;8357642;28;19913;-64
2021/05/06 11:45:05;;;;;;;;;;;9.80;99.90;;;;;;8356614;28;19909;-64
2021/05/06 11:49:10;;;;;;;;;;;9.70;99.90;;;;;;8350391;28;20558;-64
2021/05/06 11:53:16;;;;;;;;;;;9.80;99.90;;;;;;8347545;28;19959;-64
2021/05/06 11:57:17;;;;;;;;;;;9.70;99.90;;;;;;8356917;28;19920;-64
2021/05/06 12:01:23;;;;;;;;;;;9.70;99.90;;;;;;8357076;28;19909;-64
2021/05/06 12:05:23;;;;;;;;;;;9.60;99.90;;;;;;8355774;28;19958;-64
2021/05/06 12:09:25;;;;;;;;;;;9.30;99.90;;;;;;8351908;28;20406;-64
2021/05/06 12:13:27;;;;;;;;;;;9.00;99.90;;;;;;8347488;28;19917;-64
2021/05/06 12:17:27;;;;;;;;;;;8.90;99.90;;;;;;8338892;28;19917;-63
2021/05/06 12:21:33;;;;;;;;;;;8.70;99.90;;;;;;8342050;28;19913;-63
2021/05/06 12:25:34;;;;;;;;;;;8.60;99.90;;;;;;8348562;28;19917;-64
2021/05/06 12:29:34;;;;;;;;;;;8.40;99.90;;;;;;8335069;28;20442;-64
2021/05/06 12:33:35;;;;;;;;;;;8.30;99.90;;;;;;8345640;28;19920;-64
2021/05/06 12:37:37;;;;;;;;;;;8.40;99.90;;;;;;8357939;28;19916;-64
2021/05/06 12:41:47;;;;;;;;;;;8.40;99.90;;;;;;8357274;28;19940;-64
2021/05/06 12:46:03;;;;;;;;;;;8.40;99.90;;;;;;8348145;28;20668;-63
2021/05/06 12:50:08;;;;;;;;;;;8.50;99.90;;;;;;8339094;28;19913;-63
2021/05/06 12:54:14;;;;;;;;;;;8.80;99.90;;;;;;8345063;28;19921;-63
2021/05/06 12:58:23;;;;;;;;;;;8.80;99.90;;;;;;8346630;28;20016;-63
2021/05/06 13:02:30;;;;;;;;;;;8.90;99.90;;;;;;8359513;28;19917;-63
2021/05/06 13:06:32;;;;;;;;;;;9.00;99.90;;;;;;8362332;28;20368;-64
2021/05/06 13:10:36;;;;;;;;;;;8.90;99.90;;;;;;8352343;28;20019;-63
2021/05/06 13:14:44;;;;;;;;;;;8.80;99.90;;;;;;8362128;28;19965;-63
2021/05/06 13:19:04;;;;;;;;;;;8.50;99.90;;;;;;8362733;28;19913;-63
2021/05/06 13:23:09;;;;;;;;;;;8.40;99.90;;;;;;8341999;28;19917;-64
2021/05/06 13:27:17;;;;;;;;;;;8.50;99.90;;;;;;8328087;28;19917;-64
2021/05/06 13:31:20;;;;;;;;;;;8.60;99.90;;;;;;8333684;28;19963;-63
2021/05/06 13:35:21;;;;;;;;;;;8.50;99.90;;;;;;8356146;28;19921;-63
2021/05/06 13:39:21;;;;;;;;;;;8.30;99.90;;;;;;8336475;28;19923;-68
2021/05/06 13:43:24;;;;;;;;;;;8.00;99.90;;;;;;8348771;28;19917;-67
2021/05/06 13:47:25;;;;;;;;;;;8.10;99.90;;;;;;8343431;28;19917;-68
2021/05/06 13:51:27;;;;;;;;;;;8.00;99.90;;;;;;8360995;28;19966;-69
2021/05/06 13:55:27;;;;;;;;;;;8.00;99.90;;;;;;8358718;28;19913;-63
2021/05/06 13:59:28;;;;;;;;;;;8.20;99.90;;;;;;8359913;28;19912;-63
2021/05/06 14:03:28;;;;;;;;;;;8.20;99.90;;;;;;8360784;28;20069;-63
2021/05/06 14:07:29;;;;;;;;;;;8.10;99.90;;;;;;8376044;28;19913;-64
2021/05/06 14:11:29;;;;;;;;;;;8.30;99.90;;;;;;8360766;28;19954;-64
2021/05/06 14:15:30;;;;;;;;;;;8.10;99.90;;;;;;8358888;28;19942;-63
2021/05/06 14:19:30;;;;;;;;;;;8.20;99.90;;;;;;8359697;28;20394;-64
2021/05/06 14:23:35;;;;;;;;;;;8.20;99.90;;;;;;8356913;28;19920;-63
2021/05/06 14:27:36;;;;;;;;;;;8.10;99.90;;;;;;8349038;28;19916;-64
2021/05/06 14:31:36;;;;;;;;;;;8.00;99.90;;;;;;8346823;28;20311;-63
2021/05/06 14:35:38;;;;;;;;;;;8.00;99.90;;;;;;8356424;28;19912;-63
2021/05/06 14:39:39;;;;;;;;;;;7.90;99.90;;;;;;8352154;28;20539;-63
2021/05/06 14:43:39;;;;;;;;;;;7.90;99.90;;;;;;8358220;28;19917;-63
2021/05/06 14:47:40;;;;;;;;;;;8.00;99.90;;;;;;8358066;28;19919;-63
2021/05/06 14:51:41;;;;;;;;;;;8.10;99.90;;;;;;8352151;28;19913;-62
2021/05/06 14:55:41;;;;;;;;;;;8.20;99.90;;;;;;8366365;28;19956;-62
2021/05/06 14:59:42;;;;;;;;;;;8.30;99.90;;;;;;8349756;28;19974;-63
2021/05/06 15:03:42;;;;;;;;;;;8.30;99.90;;;;;;8356187;28;19912;-63
2021/05/06 15:07:43;;;;;;;;;;;7.90;99.90;;;;;;8358758;28;19967;-63
2021/05/06 15:11:43;;;;;;;;;;;8.00;99.90;;;;;;8353303;28;19913;-63
2021/05/06 15:15:44;;;;;;;;;;;8.00;99.90;;;;;;8350398;28;19920;-62
2021/05/06 15:19:44;;;;;;;;;;;7.90;99.90;;;;;;8348947;28;19913;-63
2021/05/06 15:23:46;;;;;;;;;;;7.80;99.90;;;;;;8356849;28;19909;-63
2021/05/06 15:27:46;;;;;;;;;;;7.80;99.90;;;;;;8349662;28;19969;-62
2021/05/06 15:31:47;;;;;;;;;;;7.80;99.90;;;;;;8355721;28;19925;-63
2021/05/06 15:35:48;;;;;;;;;;;7.90;99.90;;;;;;8342683;28;19913;-63
2021/05/06 15:39:48;;;;;;;;;;;8.00;99.90;;;;;;8332688;28;19921;-64
2021/05/06 15:43:49;;;;;;;;;;;8.10;99.90;;;;;;8346580;28;19923;-63
2021/05/06 15:47:49;;;;;;;;;;;8.20;99.90;;;;;;8349972;28;20018;-64
2021/05/06 15:51:50;;;;;;;;;;;8.10;99.90;;;;;;8350785;28;19912;-64
2021/05/06 15:55:50;;;;;;;;;;;8.10;99.90;;;;;;8353597;28;19909;-64
2021/05/06 15:59:51;;;;;;;;;;;8.00;99.90;;;;;;8352041;28;19917;-63
2021/05/06 16:03:59;;;;;;;;;;;8.10;99.90;;;;;;8338301;28;20011;-64
2021/05/06 16:07:59;;;;;;;;;;;8.10;99.90;;;;;;8354856;28;20000;-63
2021/05/06 16:12:00;;;;;;;;;;;8.10;99.90;;;;;;8357996;28;19913;-63
2021/05/06 16:16:00;;;;;;;;;;;8.10;99.90;;;;;;8356078;28;19916;-64
2021/05/06 16:20:03;;;;;;;;;;;8.20;99.90;;;;;;8359879;28;19919;-64
2021/05/06 16:24:04;;;;;;;;;;;8.30;99.90;;;;;;8363626;28;19960;-64
2021/05/06 16:28:06;;;;;;;;;;;8.30;99.90;;;;;;8364558;28;20547;-63
2021/05/06 16:32:06;;;;;;;;;;;8.40;99.90;;;;;;8360505;28;20463;-65
2021/05/06 16:44:40;;;;;;;;;;;8.80;99.90;;;;;;8339856;28;19936;-64
2021/05/06 16:48:41;;;;;;;;;;;8.90;99.90;;;;;;8332671;28;19958;-66
2021/05/06 16:52:41;;;;;;;;;;;9.00;99.90;;;;;;8329913;28;20714;-65
2021/05/06 16:56:42;;;;;;;;;;;8.90;99.90;;;;;;8337728;28;19913;-64
2021/05/06 17:00:43;;;;;;;;;;;8.90;99.90;;;;;;8329191;28;19921;-63
2021/05/06 17:04:43;;;;;;;;;;;9.00;99.90;;;;;;8345765;28;20345;-63
2021/05/06 17:08:44;;;;;;;;;;;8.90;99.90;;;;;;8336690;28;19924;-64
2021/05/06 17:12:44;;;;;;;;;;;8.80;99.90;;;;;;8349026;28;19913;-64
2021/05/06 17:16:45;;;;;;;;;;;8.80;99.90;;;;;;8344923;28;19917;-64
2021/05/06 17:20:45;;;;;;;;;;;8.80;99.90;;;;;;8348051;28;19960;-64
2021/05/06 17:24:46;;;;;;;;;;;8.80;99.90;;;;;;8348990;28;20003;-66
2021/05/06 17:28:47;;;;;;;;;;;8.90;99.90;;;;;;8355323;28;19917;-65
2021/05/06 17:32:47;;;;;;;;;;;9.30;99.90;;;;;;8349128;28;19913;-66
2021/05/06 17:36:48;;;;;;;;;;;9.80;99.90;;;;;;8346755;28;19921;-65
2021/05/06 17:40:49;;;;;;;;;;;9.60;99.90;;;;;;8347642;28;19975;-65
2021/05/06 17:44:50;;;;;;;;;;;9.40;99.90;;;;;;8348882;28;19921;-65
2021/05/06 17:48:50;;;;;;;;;;;9.30;99.90;;;;;;8353079;28;19925;-65
2021/05/06 17:52:51;;;;;;;;;;;9.30;99.90;;;;;;8344344;28;19913;-65
2021/05/06 17:56:51;;;;;;;;;;;9.30;99.90;;;;;;8346351;28;19924;-66
2021/05/06 18:00:52;;;;;;;;;;;9.30;99.90;;;;;;8347684;28;19923;-66
2021/05/06 18:04:53;;;;;;;;;;;9.30;99.90;;;;;;8355117;28;19932;-66
2021/05/06 18:08:54;;;;;;;;;;;9.30;99.90;;;;;;8352332;28;19920;-65
2021/05/06 18:12:56;;;;;;;;;;;9.30;99.90;;;;;;8354883;28;19917;-64
2021/05/06 18:16:56;;;;;;;;;;;9.30;99.90;;;;;;8354741;28;19916;-66
2021/05/06 18:20:57;;;;;;;;;;;9.30;99.90;;;;;;8356373;28;19916;-66
2021/05/06 18:24:57;;;;;;;;;;;9.40;99.90;;;;;;8355594;28;19913;-66
2021/05/06 18:28:58;;;;;;;;;;;9.40;99.90;;;;;;8355123;28;19963;-65
2021/05/06 18:32:58;;;;;;;;;;;9.30;99.90;;;;;;8355072;28;19913;-67
2021/05/06 18:36:59;;;;;;;;;;;9.40;99.90;;;;;;8348353;28;19916;-67
2021/05/06 18:41:00;;;;;;;;;;;9.30;99.90;;;;;;8344797;28;19967;-67
2021/05/06 18:45:00;;;;;;;;;;;9.30;99.90;;;;;;8344306;28;19909;-67
2021/05/06 18:49:01;;;;;;;;;;;9.30;99.90;;;;;;8346780;28;19921;-67
2021/05/06 18:53:01;;;;;;;;;;;9.40;99.90;;;;;;8343347;28;19920;-67
2021/05/06 18:57:02;;;;;;;;;;;9.30;99.90;;;;;;8346021;28;20268;-67
2021/05/06 19:01:02;;;;;;;;;;;9.30;99.90;;;;;;8331830;28;19909;-67
2021/05/06 19:05:05;;;;;;;;;;;9.30;99.90;;;;;;8319665;28;19916;-66
2021/05/06 19:09:06;;;;;;;;;;;9.30;99.90;;;;;;8327372;28;20030;-67
2021/05/06 19:13:07;;;;;;;;;;;9.30;99.90;;;;;;8321808;28;20055;-67
2021/05/06 19:17:09;;;;;;;;;;;9.30;99.90;;;;;;8320234;28;19917;-67
2021/05/06 19:21:11;;;;;;;;;;;9.20;99.90;;;;;;8323738;28;20288;-67
2021/05/06 19:25:12;;;;;;;;;;;9.20;99.90;;;;;;8318343;28;19921;-67
2021/05/06 19:29:12;;;;;;;;;;;9.10;99.90;;;;;;8322579;28;19974;-67
2021/05/06 19:33:14;;;;;;;;;;;9.00;99.90;;;;;;8319931;28;19924;-67
2021/05/06 19:37:15;;;;;;;;;;;8.90;99.90;;;;;;8324128;28;19913;-65
2021/05/06 19:41:15;;;;;;;;;;;8.70;99.90;;;;;;8352433;28;20398;-64
2021/05/06 19:45:29;;;;;;;;;;;8.60;99.90;;;;;;8337231;28;19957;-64
2021/05/06 19:49:29;;;;;;;;;;;8.50;99.90;;;;;;8338272;28;20468;-66
2021/05/06 19:53:30;;;;;;;;;;;8.50;99.90;;;;;;8333282;28;19913;-67
2021/05/06 19:57:30;;;;;;;;;;;8.40;99.90;;;;;;8336964;28;20018;-67
2021/05/06 20:01:38;;;;;;;;;;;8.30;99.90;;;;;;8337672;28;20001;-68
2021/05/06 20:05:40;;;;;;;;;;;8.30;99.90;;;;;;8331381;28;20094;-67
2021/05/06 20:09:40;;;;;;;;;;;8.20;99.90;;;;;;8321606;28;19944;-67
2021/05/06 20:13:43;;;;;;;;;;;8.20;99.90;;;;;;8322658;28;19913;-68
2021/05/06 20:17:45;;;;;;;;;;;8.10;99.90;;;;;;8335066;28;20642;-67
2021/05/06 20:22:03;;;;;;;;;;;8.20;99.90;;;;;;8338770;28;20016;-67
2021/05/06 20:26:03;;;;;;;;;;;8.30;99.90;;;;;;8337772;28;19913;-67
2021/05/06 20:30:04;;;;;;;;;;;8.30;99.90;;;;;;8338040;28;20295;-67
2021/05/06 20:34:05;;;;;;;;;;;8.40;99.90;;;;;;8336532;28;19917;-67
2021/05/06 20:38:06;;;;;;;;;;;8.40;99.90;;;;;;8336059;28;19924;-67
2021/05/06 20:42:09;;;;;;;;;;;8.50;99.90;;;;;;8339405;28;19928;-67
2021/05/06 20:46:09;;;;;;;;;;;8.50;99.90;;;;;;8341949;28;20000;-70
2021/05/06 20:50:10;;;;;;;;;;;8.50;99.90;;;;;;8337743;28;20437;-69
2021/05/06 20:54:10;;;;;;;;;;;8.60;99.90;;;;;;8329315;28;19917;-68
2021/05/06 20:58:11;;;;;;;;;;;8.60;99.90;;;;;;8338566;28;19971;-69
2021/05/06 21:02:13;;;;;;;;;;;8.60;99.90;;;;;;8339851;28;19974;-69
2021/05/06 21:06:13;;;;;;;;;;;8.60;99.90;;;;;;8337875;28;19948;-70
2021/05/06 21:10:15;;;;;;;;;;;8.70;99.90;;;;;;8357806;28;20571;-69
2021/05/06 21:14:16;;;;;;;;;;;8.70;99.90;;;;;;8335381;28;20364;-69
2021/05/06 21:18:16;;;;;;;;;;;8.70;99.90;;;;;;8342873;28;19965;-69
2021/05/06 21:22:21;;;;;;;;;;;8.80;99.90;;;;;;8343239;28;19917;-69
2021/05/06 21:26:22;;;;;;;;;;;8.80;99.90;;;;;;8330845;28;19952;-70
2021/05/06 21:30:22;;;;;;;;;;;8.70;99.90;;;;;;8345269;28;19988;-70
2021/05/06 21:34:23;;;;;;;;;;;8.70;99.90;;;;;;8360443;28;20298;-69
2021/05/06 21:38:24;;;;;;;;;;;8.70;99.90;;;;;;8362598;28;19909;-69
2021/05/06 21:42:24;;;;;;;;;;;8.70;99.90;;;;;;8362008;28;19916;-69
2021/05/06 21:46:26;;;;;;;;;;;8.80;99.90;;;;;;8362154;28;19917;-68
2021/05/06 21:50:26;;;;;;;;;;;8.70;99.90;;;;;;8362339;28;19913;-68
2021/05/06 21:54:27;;;;;;;;;;;8.60;99.90;;;;;;8360435;28;19915;-69
2021/05/06 21:58:27;;;;;;;;;;;8.70;99.90;;;;;;8361848;28;19909;-69
2021/05/06 22:02:28;;;;;;;;;;;8.70;99.90;;;;;;8361355;28;19916;-69
2021/05/06 22:06:28;;;;;;;;;;;8.60;99.90;;;;;;8361134;28;19916;-69
2021/05/06 22:10:30;;;;;;;;;;;8.60;99.90;;;;;;8361668;28;19913;-66
2021/05/06 22:14:31;;;;;;;;;;;8.50;99.90;;;;;;8360959;28;20059;-66
2021/05/06 22:18:36;;;;;;;;;;;8.60;99.90;;;;;;8360353;28;19970;-66
2021/05/06 22:22:38;;;;;;;;;;;8.60;99.90;;;;;;8360723;28;20000;-66
2021/05/06 22:26:38;;;;;;;;;;;8.60;99.90;;;;;;8361069;28;19913;-66
2021/05/06 22:30:39;;;;;;;;;;;8.60;99.90;;;;;;8360379;28;19998;-66
2021/05/06 22:34:41;;;;;;;;;;;8.70;99.90;;;;;;8360224;28;19909;-66
2021/05/06 22:38:41;;;;;;;;;;;8.70;99.90;;;;;;8361022;28;19944;-65
2021/05/06 22:42:42;;;;;;;;;;;8.70;99.90;;;;;;8360047;28;19943;-66
2021/05/06 22:46:42;;;;;;;;;;;8.70;99.90;;;;;;8360449;28;19908;-66
2021/05/06 22:50:43;;;;;;;;;;;8.80;99.90;;;;;;8359197;28;19920;-66
2021/05/06 22:54:43;;;;;;;;;;;8.80;99.90;;;;;;8359875;28;19909;-66
2021/05/06 22:58:44;;;;;;;;;;;8.80;99.90;;;;;;8359085;28;20279;-66
2021/05/06 23:02:45;;;;;;;;;;;8.80;99.90;;;;;;8357997;28;20436;-66
2021/05/06 23:06:46;;;;;;;;;;;8.80;99.90;;;;;;8358098;28;20007;-66
2021/05/06 23:10:46;;;;;;;;;;;8.80;99.90;;;;;;8359898;28;20027;-66
2021/05/06 23:14:47;;;;;;;;;;;8.80;99.90;;;;;;8359216;28;19955;-66
2021/05/06 23:18:48;;;;;;;;;;;8.80;99.90;;;;;;8359820;28;19916;-65
2021/05/06 23:22:48;;;;;;;;;;;8.80;99.90;;;;;;8357767;28;19916;-66
2021/05/06 23:26:48;;;;;;;;;;;8.70;99.90;;;;;;8359585;28;20011;-65
2021/05/06 23:30:49;;;;;;;;;;;8.80;99.90;;;;;;8359074;28;19919;-66
2021/05/06 23:34:49;;;;;;;;;;;8.80;99.90;;;;;;8357594;28;19916;-66
2021/05/06 23:38:50;;;;;;;;;;;8.70;99.90;;;;;;8359647;28;19956;-65
2021/05/06 23:42:50;;;;;;;;;;;8.80;99.90;;;;;;8357538;28;20276;-65
2021/05/06 23:46:51;;;;;;;;;;;8.70;99.90;;;;;;8359021;28;20397;-65
2021/05/06 23:50:55;;;;;;;;;;;8.70;99.90;;;;;;8359282;28;19924;-66
2021/05/06 23:54:56;;;;;;;;;;;8.60;99.90;;;;;;8358650;28;19915;-65
2021/05/06 23:58:56;;;;;;;;;;;8.60;99.90;;;;;;8359067;28;20311;-65
